sensor_id;sensor_type;location;lat;lon;timestamp;P1;durP1;ratioP1;P2;durP2;ratioP2
39958;SDS011;25639;53.634;9.880;2022-08-21T00:01:16;8.50;;;4.25;;
39958;SDS011;25639;53.634;9.880;2022-08-21T00:03:44;8.07;;;5.10;;
39958;SDS011;25639;53.634;9.880;2022-08-21T00:06:09;10.20;;;4.82;;
39958;SDS011;25639;53.634;9.880;2022-08-21T00:08:35;11.18;;;5.07;;
39958;SDS011;25639;53.634;9.880;2022-08-21T00:11:01;11.00;;;5.60;;
39958;SDS011;25639;53.634;9.880;2022-08-21T00:13:26;11.27;;;5.32;;
39958;SDS011;25639;53.634;9.880;2022-08-21T00:15:52;9.90;;;5.32;;
39958;SDS011;25639;53.634;9.880;2022-08-21T00:18:18;13.02;;;5.13;;
39958;SDS011;25639;53.634;9.880;2022-08-21T00:20:44;8.68;;;4.88;;
39958;SDS011;25639;53.634;9.880;2022-08-21T00:23:10;10.57;;;5.25;;
39958;SDS011;25639;53.634;9.880;2022-08-21T00:25:37;9.00;;;5.00;;
39958;SDS011;25639;53.634;9.880;2022-08-21T00:28:03;9.55;;;4.60;;
39958;SDS011;25639;53.634;9.880;2022-08-21T00:30:29;9.75;;;4.65;;
39958;SDS011;25639;53.634;9.880;2022-08-21T00:32:55;9.55;;;4.60;;
39958;SDS011;25639;53.634;9.880;2022-08-21T00:35:25;10.20;;;4.63;;
39958;SDS011;25639;53.634;9.880;2022-08-21T00:37:52;10.40;;;4.18;;
39958;SDS011;25639;53.634;9.880;2022-08-21T00:40:19;8.35;;;4.22;;
39958;SDS011;25639;53.634;9.880;2022-08-21T00:42:49;8.63;;;4.55;;
39958;SDS011;25639;53.634;9.880;2022-08-21T00:45:15;8.55;;;4.25;;
39958;SDS011;25639;53.634;9.880;2022-08-21T00:47:41;8.68;;;4.50;;
39958;SDS011;25639;53.634;9.880;2022-08-21T00:50:07;7.60;;;4.28;;
39958;SDS011;25639;53.634;9.880;2022-08-21T00:52:34;9.52;;;4.35;;
39958;SDS011;25639;53.634;9.880;2022-08-21T00:55:01;8.75;;;4.13;;
39958;SDS011;25639;53.634;9.880;2022-08-21T00:57:36;7.50;;;4.50;;
39958;SDS011;25639;53.634;9.880;2022-08-21T01:00:07;10.38;;;4.72;;
39958;SDS011;25639;53.634;9.880;2022-08-21T01:02:35;8.27;;;4.78;;
39958;SDS011;25639;53.634;9.880;2022-08-21T01:05:01;6.45;;;3.80;;
39958;SDS011;25639;53.634;9.880;2022-08-21T01:07:26;7.55;;;4.50;;
39958;SDS011;25639;53.634;9.880;2022-08-21T01:09:51;10.52;;;5.00;;
39958;SDS011;25639;53.634;9.880;2022-08-21T01:12:17;7.10;;;4.30;;
39958;SDS011;25639;53.634;9.880;2022-08-21T01:14:43;10.80;;;4.72;;
39958;SDS011;25639;53.634;9.880;2022-08-21T01:17:10;9.55;;;4.45;;
39958;SDS011;25639;53.634;9.880;2022-08-21T01:19:37;9.07;;;4.28;;
39958;SDS011;25639;53.634;9.880;2022-08-21T01:22:03;6.70;;;4.65;;
39958;SDS011;25639;53.634;9.880;2022-08-21T01:24:28;8.07;;;4.28;;
39958;SDS011;25639;53.634;9.880;2022-08-21T01:26:56;7.65;;;4.32;;
39958;SDS011;25639;53.634;9.880;2022-08-21T01:31:48;6.50;;;4.07;;
39958;SDS011;25639;53.634;9.880;2022-08-21T01:34:13;6.65;;;4.32;;
39958;SDS011;25639;53.634;9.880;2022-08-21T01:36:40;7.13;;;4.25;;
39958;SDS011;25639;53.634;9.880;2022-08-21T01:39:07;6.53;;;4.38;;
39958;SDS011;25639;53.634;9.880;2022-08-21T01:41:32;7.75;;;4.10;;
39958;SDS011;25639;53.634;9.880;2022-08-21T01:43:57;8.23;;;4.63;;
39958;SDS011;25639;53.634;9.880;2022-08-21T01:46:22;7.80;;;4.50;;
39958;SDS011;25639;53.634;9.880;2022-08-21T01:48:48;8.10;;;4.40;;
39958;SDS011;25639;53.634;9.880;2022-08-21T01:51:13;6.38;;;3.92;;
39958;SDS011;25639;53.634;9.880;2022-08-21T01:53:39;11.27;;;4.80;;
39958;SDS011;25639;53.634;9.880;2022-08-21T01:56:05;7.93;;;4.40;;
39958;SDS011;25639;53.634;9.880;2022-08-21T01:58:34;10.52;;;5.05;;
39958;SDS011;25639;53.634;9.880;2022-08-21T02:01:00;11.50;;;5.72;;
39958;SDS011;25639;53.634;9.880;2022-08-21T02:03:29;11.20;;;5.03;;
39958;SDS011;25639;53.634;9.880;2022-08-21T02:05:54;12.55;;;5.20;;
39958;SDS011;25639;53.634;9.880;2022-08-21T02:08:20;9.20;;;4.82;;
39958;SDS011;25639;53.634;9.880;2022-08-21T02:10:47;7.50;;;4.53;;
39958;SDS011;25639;53.634;9.880;2022-08-21T02:13:14;8.20;;;4.63;;
39958;SDS011;25639;53.634;9.880;2022-08-21T02:15:41;7.53;;;4.00;;
39958;SDS011;25639;53.634;9.880;2022-08-21T02:18:07;6.60;;;4.30;;
39958;SDS011;25639;53.634;9.880;2022-08-21T02:20:34;8.98;;;5.28;;
39958;SDS011;25639;53.634;9.880;2022-08-21T02:23:03;8.00;;;4.72;;
39958;SDS011;25639;53.634;9.880;2022-08-21T02:25:29;13.02;;;5.03;;
39958;SDS011;25639;53.634;9.880;2022-08-21T02:27:55;7.60;;;4.35;;
39958;SDS011;25639;53.634;9.880;2022-08-21T02:30:25;6.70;;;4.40;;
39958;SDS011;25639;53.634;9.880;2022-08-21T02:32:53;7.72;;;4.25;;
39958;SDS011;25639;53.634;9.880;2022-08-21T02:35:19;6.28;;;4.43;;
39958;SDS011;25639;53.634;9.880;2022-08-21T02:37:49;7.72;;;4.40;;
39958;SDS011;25639;53.634;9.880;2022-08-21T02:40:17;9.15;;;4.53;;
39958;SDS011;25639;53.634;9.880;2022-08-21T02:42:45;12.13;;;4.38;;
39958;SDS011;25639;53.634;9.880;2022-08-21T02:45:11;8.77;;;4.38;;
39958;SDS011;25639;53.634;9.880;2022-08-21T02:47:37;7.13;;;4.20;;
39958;SDS011;25639;53.634;9.880;2022-08-21T02:50:04;8.13;;;4.22;;
39958;SDS011;25639;53.634;9.880;2022-08-21T02:52:31;8.50;;;4.90;;
39958;SDS011;25639;53.634;9.880;2022-08-21T02:54:57;9.45;;;4.97;;
39958;SDS011;25639;53.634;9.880;2022-08-21T02:57:22;8.85;;;4.50;;
39958;SDS011;25639;53.634;9.880;2022-08-21T02:59:47;8.57;;;4.50;;
39958;SDS011;25639;53.634;9.880;2022-08-21T03:02:13;9.80;;;4.63;;
39958;SDS011;25639;53.634;9.880;2022-08-21T03:04:38;7.28;;;4.10;;
39958;SDS011;25639;53.634;9.880;2022-08-21T03:07:03;7.07;;;4.53;;
39958;SDS011;25639;53.634;9.880;2022-08-21T03:09:29;12.07;;;4.63;;
39958;SDS011;25639;53.634;9.880;2022-08-21T03:11:54;10.13;;;4.50;;
39958;SDS011;25639;53.634;9.880;2022-08-21T03:14:19;8.32;;;4.93;;
39958;SDS011;25639;53.634;9.880;2022-08-21T03:16:45;9.40;;;4.40;;
39958;SDS011;25639;53.634;9.880;2022-08-21T03:19:10;10.27;;;4.47;;
39958;SDS011;25639;53.634;9.880;2022-08-21T03:21:36;7.38;;;4.25;;
39958;SDS011;25639;53.634;9.880;2022-08-21T03:24:01;7.75;;;4.22;;
39958;SDS011;25639;53.634;9.880;2022-08-21T03:26:27;11.80;;;4.85;;
39958;SDS011;25639;53.634;9.880;2022-08-21T03:28:53;8.15;;;4.20;;
39958;SDS011;25639;53.634;9.880;2022-08-21T03:31:18;10.45;;;4.50;;
39958;SDS011;25639;53.634;9.880;2022-08-21T03:33:44;10.25;;;4.78;;
39958;SDS011;25639;53.634;9.880;2022-08-21T03:36:09;9.40;;;4.65;;
39958;SDS011;25639;53.634;9.880;2022-08-21T03:38:35;8.57;;;4.50;;
39958;SDS011;25639;53.634;9.880;2022-08-21T03:41:02;8.27;;;4.35;;
39958;SDS011;25639;53.634;9.880;2022-08-21T03:43:28;7.22;;;4.82;;
39958;SDS011;25639;53.634;9.880;2022-08-21T03:45:54;6.90;;;4.18;;
39958;SDS011;25639;53.634;9.880;2022-08-21T03:48:19;10.50;;;4.22;;
39958;SDS011;25639;53.634;9.880;2022-08-21T03:50:45;9.02;;;4.03;;
39958;SDS011;25639;53.634;9.880;2022-08-21T03:53:12;7.70;;;4.10;;
39958;SDS011;25639;53.634;9.880;2022-08-21T03:55:38;7.40;;;3.90;;
39958;SDS011;25639;53.634;9.880;2022-08-21T03:58:04;8.43;;;4.15;;
39958;SDS011;25639;53.634;9.880;2022-08-21T04:00:33;8.20;;;4.03;;
39958;SDS011;25639;53.634;9.880;2022-08-21T04:02:58;6.50;;;4.03;;
39958;SDS011;25639;53.634;9.880;2022-08-21T04:05:24;7.85;;;3.95;;
39958;SDS011;25639;53.634;9.880;2022-08-21T04:07:59;8.63;;;3.70;;
39958;SDS011;25639;53.634;9.880;2022-08-21T04:10:29;5.57;;;3.75;;
39958;SDS011;25639;53.634;9.880;2022-08-21T04:12:56;8.10;;;4.05;;
39958;SDS011;25639;53.634;9.880;2022-08-21T04:15:23;8.45;;;3.88;;
39958;SDS011;25639;53.634;9.880;2022-08-21T04:17:50;7.15;;;4.00;;
39958;SDS011;25639;53.634;9.880;2022-08-21T04:20:16;7.68;;;3.88;;
39958;SDS011;25639;53.634;9.880;2022-08-21T04:22:43;7.32;;;4.07;;
39958;SDS011;25639;53.634;9.880;2022-08-21T04:25:09;7.80;;;4.03;;
39958;SDS011;25639;53.634;9.880;2022-08-21T04:27:35;7.72;;;4.13;;
39958;SDS011;25639;53.634;9.880;2022-08-21T04:30:00;8.20;;;3.78;;
39958;SDS011;25639;53.634;9.880;2022-08-21T04:32:26;5.28;;;3.47;;
39958;SDS011;25639;53.634;9.880;2022-08-21T04:35:03;5.28;;;3.78;;
39958;SDS011;25639;53.634;9.880;2022-08-21T04:37:32;9.73;;;4.13;;
39958;SDS011;25639;53.634;9.880;2022-08-21T04:39:57;9.40;;;4.10;;
39958;SDS011;25639;53.634;9.880;2022-08-21T04:42:23;8.73;;;4.15;;
39958;SDS011;25639;53.634;9.880;2022-08-21T04:44:50;9.73;;;4.18;;
39958;SDS011;25639;53.634;9.880;2022-08-21T04:47:16;8.00;;;3.63;;
39958;SDS011;25639;53.634;9.880;2022-08-21T04:49:41;6.68;;;4.30;;
39958;SDS011;25639;53.634;9.880;2022-08-21T04:52:07;6.50;;;3.92;;
39958;SDS011;25639;53.634;9.880;2022-08-21T04:54:32;9.35;;;4.07;;
39958;SDS011;25639;53.634;9.880;2022-08-21T04:57:02;11.02;;;4.03;;
39958;SDS011;25639;53.634;9.880;2022-08-21T04:59:36;5.82;;;3.85;;
39958;SDS011;25639;53.634;9.880;2022-08-21T05:02:04;6.25;;;3.67;;
39958;SDS011;25639;53.634;9.880;2022-08-21T05:04:31;7.05;;;3.90;;
39958;SDS011;25639;53.634;9.880;2022-08-21T05:06:59;8.52;;;3.92;;
39958;SDS011;25639;53.634;9.880;2022-08-21T05:09:28;6.93;;;3.63;;
39958;SDS011;25639;53.634;9.880;2022-08-21T05:11:55;10.93;;;4.10;;
39958;SDS011;25639;53.634;9.880;2022-08-21T05:14:21;5.30;;;3.40;;
39958;SDS011;25639;53.634;9.880;2022-08-21T05:16:47;7.72;;;4.13;;
39958;SDS011;25639;53.634;9.880;2022-08-21T05:19:12;7.18;;;4.18;;
39958;SDS011;25639;53.634;9.880;2022-08-21T05:21:40;11.65;;;4.25;;
39958;SDS011;25639;53.634;9.880;2022-08-21T05:24:07;9.05;;;5.05;;
39958;SDS011;25639;53.634;9.880;2022-08-21T05:26:33;8.57;;;4.60;;
39958;SDS011;25639;53.634;9.880;2022-08-21T05:28:58;7.32;;;4.50;;
39958;SDS011;25639;53.634;9.880;2022-08-21T05:31:24;6.22;;;4.10;;
39958;SDS011;25639;53.634;9.880;2022-08-21T05:33:49;7.95;;;4.65;;
39958;SDS011;25639;53.634;9.880;2022-08-21T05:36:14;8.88;;;4.78;;
39958;SDS011;25639;53.634;9.880;2022-08-21T05:38:41;9.60;;;4.75;;
39958;SDS011;25639;53.634;9.880;2022-08-21T05:41:08;8.02;;;4.95;;
39958;SDS011;25639;53.634;9.880;2022-08-21T05:43:34;8.95;;;4.45;;
39958;SDS011;25639;53.634;9.880;2022-08-21T05:46:01;8.05;;;4.70;;
39958;SDS011;25639;53.634;9.880;2022-08-21T05:48:30;8.02;;;5.00;;
39958;SDS011;25639;53.634;9.880;2022-08-21T05:50:56;10.82;;;4.65;;
39958;SDS011;25639;53.634;9.880;2022-08-21T05:53:22;9.23;;;5.10;;
39958;SDS011;25639;53.634;9.880;2022-08-21T05:55:49;7.90;;;4.47;;
39958;SDS011;25639;53.634;9.880;2022-08-21T05:58:16;10.80;;;4.93;;
39958;SDS011;25639;53.634;9.880;2022-08-21T06:00:43;10.02;;;4.70;;
39958;SDS011;25639;53.634;9.880;2022-08-21T06:03:13;8.88;;;4.88;;
39958;SDS011;25639;53.634;9.880;2022-08-21T06:05:41;12.63;;;4.60;;
39958;SDS011;25639;53.634;9.880;2022-08-21T06:08:07;8.10;;;4.10;;
39958;SDS011;25639;53.634;9.880;2022-08-21T06:10:32;10.05;;;4.07;;
39958;SDS011;25639;53.634;9.880;2022-08-21T06:12:58;8.55;;;3.83;;
39958;SDS011;25639;53.634;9.880;2022-08-21T06:15:23;12.82;;;4.40;;
39958;SDS011;25639;53.634;9.880;2022-08-21T06:17:48;10.68;;;3.83;;
39958;SDS011;25639;53.634;9.880;2022-08-21T06:20:14;10.10;;;3.13;;
39958;SDS011;25639;53.634;9.880;2022-08-21T06:22:39;8.27;;;2.80;;
39958;SDS011;25639;53.634;9.880;2022-08-21T06:25:04;6.55;;;2.40;;
39958;SDS011;25639;53.634;9.880;2022-08-21T06:27:30;11.63;;;2.53;;
39958;SDS011;25639;53.634;9.880;2022-08-21T06:29:55;9.77;;;1.90;;
39958;SDS011;25639;53.634;9.880;2022-08-21T06:32:22;7.30;;;2.53;;
39958;SDS011;25639;53.634;9.880;2022-08-21T06:34:48;7.22;;;2.20;;
39958;SDS011;25639;53.634;9.880;2022-08-21T06:37:13;5.75;;;1.85;;
39958;SDS011;25639;53.634;9.880;2022-08-21T06:39:39;8.73;;;1.80;;
39958;SDS011;25639;53.634;9.880;2022-08-21T06:42:04;5.22;;;1.60;;
39958;SDS011;25639;53.634;9.880;2022-08-21T06:44:30;7.57;;;1.95;;
39958;SDS011;25639;53.634;9.880;2022-08-21T06:46:55;6.45;;;1.75;;
39958;SDS011;25639;53.634;9.880;2022-08-21T06:49:21;7.25;;;1.73;;
39958;SDS011;25639;53.634;9.880;2022-08-21T06:51:47;5.55;;;1.80;;
39958;SDS011;25639;53.634;9.880;2022-08-21T06:54:12;6.22;;;2.08;;
39958;SDS011;25639;53.634;9.880;2022-08-21T06:56:37;5.00;;;1.77;;
39958;SDS011;25639;53.634;9.880;2022-08-21T06:59:03;5.47;;;1.65;;
39958;SDS011;25639;53.634;9.880;2022-08-21T07:01:30;6.10;;;1.40;;
39958;SDS011;25639;53.634;9.880;2022-08-21T07:03:55;9.13;;;1.60;;
39958;SDS011;25639;53.634;9.880;2022-08-21T07:06:20;4.75;;;1.38;;
39958;SDS011;25639;53.634;9.880;2022-08-21T07:08:45;5.53;;;1.30;;
39958;SDS011;25639;53.634;9.880;2022-08-21T07:11:18;6.30;;;1.73;;
39958;SDS011;25639;53.634;9.880;2022-08-21T07:13:45;5.63;;;1.77;;
39958;SDS011;25639;53.634;9.880;2022-08-21T07:16:10;6.95;;;1.60;;
39958;SDS011;25639;53.634;9.880;2022-08-21T07:18:36;5.72;;;1.55;;
39958;SDS011;25639;53.634;9.880;2022-08-21T07:21:02;4.97;;;1.50;;
39958;SDS011;25639;53.634;9.880;2022-08-21T07:23:49;6.88;;;1.25;;
39958;SDS011;25639;53.634;9.880;2022-08-21T07:26:18;6.22;;;1.70;;
39958;SDS011;25639;53.634;9.880;2022-08-21T07:28:46;5.72;;;2.05;;
39958;SDS011;25639;53.634;9.880;2022-08-21T07:31:13;5.90;;;1.50;;
39958;SDS011;25639;53.634;9.880;2022-08-21T07:33:40;6.55;;;1.80;;
39958;SDS011;25639;53.634;9.880;2022-08-21T07:36:06;5.50;;;1.50;;
39958;SDS011;25639;53.634;9.880;2022-08-21T07:38:31;6.47;;;1.60;;
39958;SDS011;25639;53.634;9.880;2022-08-21T07:40:57;5.03;;;1.70;;
39958;SDS011;25639;53.634;9.880;2022-08-21T07:43:25;8.18;;;1.83;;
39958;SDS011;25639;53.634;9.880;2022-08-21T07:45:51;7.50;;;1.70;;
39958;SDS011;25639;53.634;9.880;2022-08-21T07:48:18;5.47;;;1.50;;
39958;SDS011;25639;53.634;9.880;2022-08-21T07:50:44;8.10;;;1.83;;
39958;SDS011;25639;53.634;9.880;2022-08-21T07:53:09;6.18;;;1.33;;
39958;SDS011;25639;53.634;9.880;2022-08-21T07:55:34;3.70;;;1.23;;
39958;SDS011;25639;53.634;9.880;2022-08-21T07:58:00;4.88;;;1.30;;
39958;SDS011;25639;53.634;9.880;2022-08-21T08:00:26;5.63;;;1.73;;
39958;SDS011;25639;53.634;9.880;2022-08-21T08:02:54;4.40;;;1.42;;
39958;SDS011;25639;53.634;9.880;2022-08-21T08:05:21;4.50;;;1.38;;
39958;SDS011;25639;53.634;9.880;2022-08-21T08:07:49;6.43;;;1.70;;
39958;SDS011;25639;53.634;9.880;2022-08-21T08:10:15;4.80;;;1.92;;
39958;SDS011;25639;53.634;9.880;2022-08-21T08:12:42;6.07;;;2.17;;
39958;SDS011;25639;53.634;9.880;2022-08-21T08:15:10;3.78;;;1.50;;
39958;SDS011;25639;53.634;9.880;2022-08-21T08:17:38;8.15;;;1.50;;
39958;SDS011;25639;53.634;9.880;2022-08-21T08:20:05;9.63;;;2.22;;
39958;SDS011;25639;53.634;9.880;2022-08-21T08:22:33;4.85;;;2.15;;
39958;SDS011;25639;53.634;9.880;2022-08-21T08:25:00;8.38;;;2.00;;
39958;SDS011;25639;53.634;9.880;2022-08-21T08:27:26;6.45;;;1.80;;
39958;SDS011;25639;53.634;9.880;2022-08-21T08:29:52;6.32;;;2.03;;
39958;SDS011;25639;53.634;9.880;2022-08-21T08:32:18;9.93;;;2.00;;
39958;SDS011;25639;53.634;9.880;2022-08-21T08:34:44;5.25;;;1.60;;
39958;SDS011;25639;53.634;9.880;2022-08-21T08:37:09;4.10;;;1.73;;
39958;SDS011;25639;53.634;9.880;2022-08-21T08:39:36;6.38;;;1.90;;
39958;SDS011;25639;53.634;9.880;2022-08-21T08:42:05;8.77;;;2.28;;
39958;SDS011;25639;53.634;9.880;2022-08-21T08:44:31;4.78;;;2.10;;
39958;SDS011;25639;53.634;9.880;2022-08-21T08:46:57;9.75;;;2.10;;
39958;SDS011;25639;53.634;9.880;2022-08-21T08:49:34;5.65;;;2.38;;
39958;SDS011;25639;53.634;9.880;2022-08-21T08:52:45;8.43;;;2.25;;
39958;SDS011;25639;53.634;9.880;2022-08-21T08:55:11;7.10;;;2.13;;
39958;SDS011;25639;53.634;9.880;2022-08-21T08:57:41;5.68;;;2.22;;
39958;SDS011;25639;53.634;9.880;2022-08-21T09:00:11;7.20;;;2.03;;
39958;SDS011;25639;53.634;9.880;2022-08-21T09:02:39;6.20;;;2.00;;
39958;SDS011;25639;53.634;9.880;2022-08-21T09:05:06;12.25;;;2.00;;
39958;SDS011;25639;53.634;9.880;2022-08-21T09:10:18;5.55;;;2.08;;
39958;SDS011;25639;53.634;9.880;2022-08-21T09:13:03;5.25;;;1.75;;
39958;SDS011;25639;53.634;9.880;2022-08-21T09:21:16;5.45;;;1.92;;
39958;SDS011;25639;53.634;9.880;2022-08-21T09:26:24;5.32;;;1.73;;
39958;SDS011;25639;53.634;9.880;2022-08-21T09:28:52;8.60;;;2.15;;
39958;SDS011;25639;53.634;9.880;2022-08-21T09:31:24;3.97;;;1.73;;
39958;SDS011;25639;53.634;9.880;2022-08-21T09:33:59;8.40;;;1.95;;
39958;SDS011;25639;53.634;9.880;2022-08-21T09:45:17;10.48;;;2.00;;
39958;SDS011;25639;53.634;9.880;2022-08-21T09:47:43;8.90;;;2.22;;
39958;SDS011;25639;53.634;9.880;2022-08-21T09:50:16;6.97;;;2.15;;
39958;SDS011;25639;53.634;9.880;2022-08-21T09:52:48;7.50;;;2.10;;
39958;SDS011;25639;53.634;9.880;2022-08-21T09:55:39;7.88;;;2.60;;
39958;SDS011;25639;53.634;9.880;2022-08-21T09:58:33;8.27;;;2.20;;
39958;SDS011;25639;53.634;9.880;2022-08-21T10:01:02;8.82;;;1.83;;
39958;SDS011;25639;53.634;9.880;2022-08-21T10:03:29;6.85;;;2.28;;
39958;SDS011;25639;53.634;9.880;2022-08-21T10:05:57;10.88;;;2.25;;
39958;SDS011;25639;53.634;9.880;2022-08-21T10:08:23;8.68;;;2.40;;
39958;SDS011;25639;53.634;9.880;2022-08-21T10:10:54;6.60;;;2.20;;
39958;SDS011;25639;53.634;9.880;2022-08-21T10:21:48;7.97;;;1.85;;
39958;SDS011;25639;53.634;9.880;2022-08-21T10:42:39;7.63;;;2.08;;
39958;SDS011;25639;53.634;9.880;2022-08-21T10:45:15;5.50;;;1.98;;
39958;SDS011;25639;53.634;9.880;2022-08-21T10:48:08;5.57;;;1.45;;
39958;SDS011;25639;53.634;9.880;2022-08-21T10:50:48;3.65;;;1.60;;
39958;SDS011;25639;53.634;9.880;2022-08-21T10:55:57;5.00;;;1.75;;
39958;SDS011;25639;53.634;9.880;2022-08-21T10:58:37;4.78;;;2.08;;
39958;SDS011;25639;53.634;9.880;2022-08-21T11:01:13;5.32;;;1.58;;
39958;SDS011;25639;53.634;9.880;2022-08-21T11:03:46;7.53;;;2.13;;
39958;SDS011;25639;53.634;9.880;2022-08-21T11:06:24;5.38;;;1.75;;
39958;SDS011;25639;53.634;9.880;2022-08-21T11:08:56;5.93;;;1.67;;
39958;SDS011;25639;53.634;9.880;2022-08-21T11:11:38;4.43;;;1.83;;
39958;SDS011;25639;53.634;9.880;2022-08-21T11:14:16;4.60;;;1.67;;
39958;SDS011;25639;53.634;9.880;2022-08-21T11:16:56;4.68;;;1.50;;
39958;SDS011;25639;53.634;9.880;2022-08-21T11:19:41;5.20;;;1.60;;
39958;SDS011;25639;53.634;9.880;2022-08-21T11:25:00;7.15;;;1.70;;
39958;SDS011;25639;53.634;9.880;2022-08-21T11:30:05;4.80;;;1.90;;
39958;SDS011;25639;53.634;9.880;2022-08-21T11:32:44;7.22;;;1.67;;
39958;SDS011;25639;53.634;9.880;2022-08-21T11:35:38;5.57;;;1.40;;
39958;SDS011;25639;53.634;9.880;2022-08-21T11:38:22;5.57;;;1.55;;
39958;SDS011;25639;53.634;9.880;2022-08-21T11:47:00;4.57;;;1.63;;
39958;SDS011;25639;53.634;9.880;2022-08-21T11:49:39;5.18;;;1.50;;
39958;SDS011;25639;53.634;9.880;2022-08-21T11:52:31;4.68;;;1.90;;
39958;SDS011;25639;53.634;9.880;2022-08-21T11:55:01;3.63;;;1.73;;
39958;SDS011;25639;53.634;9.880;2022-08-21T11:57:39;5.18;;;1.60;;
39958;SDS011;25639;53.634;9.880;2022-08-21T12:02:47;5.72;;;1.50;;
39958;SDS011;25639;53.634;9.880;2022-08-21T12:08:36;4.72;;;1.70;;
39958;SDS011;25639;53.634;9.880;2022-08-21T12:13:52;5.43;;;1.60;;
39958;SDS011;25639;53.634;9.880;2022-08-21T12:16:29;5.32;;;1.70;;
39958;SDS011;25639;53.634;9.880;2022-08-21T12:19:07;6.90;;;1.75;;
39958;SDS011;25639;53.634;9.880;2022-08-21T12:21:59;6.47;;;1.27;;
39958;SDS011;25639;53.634;9.880;2022-08-21T12:24:32;2.85;;;1.45;;
39958;SDS011;25639;53.634;9.880;2022-08-21T12:27:12;4.32;;;1.52;;
39958;SDS011;25639;53.634;9.880;2022-08-21T12:29:52;3.95;;;1.42;;
39958;SDS011;25639;53.634;9.880;2022-08-21T12:32:23;3.85;;;1.42;;
39958;SDS011;25639;53.634;9.880;2022-08-21T12:35:12;4.13;;;1.35;;
39958;SDS011;25639;53.634;9.880;2022-08-21T12:37:40;3.60;;;1.45;;
39958;SDS011;25639;53.634;9.880;2022-08-21T12:40:14;2.75;;;1.15;;
39958;SDS011;25639;53.634;9.880;2022-08-21T12:42:47;5.80;;;1.45;;
39958;SDS011;25639;53.634;9.880;2022-08-21T12:45:23;2.63;;;1.30;;
39958;SDS011;25639;53.634;9.880;2022-08-21T12:50:41;4.10;;;1.20;;
39958;SDS011;25639;53.634;9.880;2022-08-21T12:53:15;4.00;;;1.27;;
39958;SDS011;25639;53.634;9.880;2022-08-21T12:55:50;4.03;;;1.38;;
39958;SDS011;25639;53.634;9.880;2022-08-21T12:58:16;5.85;;;1.98;;
39958;SDS011;25639;53.634;9.880;2022-08-21T13:01:00;2.90;;;1.40;;
39958;SDS011;25639;53.634;9.880;2022-08-21T13:03:35;3.85;;;1.60;;
39958;SDS011;25639;53.634;9.880;2022-08-21T13:06:05;3.42;;;1.38;;
39958;SDS011;25639;53.634;9.880;2022-08-21T13:08:32;3.47;;;1.17;;
39958;SDS011;25639;53.634;9.880;2022-08-21T13:11:02;3.40;;;1.23;;
39958;SDS011;25639;53.634;9.880;2022-08-21T13:13:30;1.77;;;1.05;;
39958;SDS011;25639;53.634;9.880;2022-08-21T13:15:56;3.08;;;1.63;;
39958;SDS011;25639;53.634;9.880;2022-08-21T13:18:26;3.67;;;1.17;;
39958;SDS011;25639;53.634;9.880;2022-08-21T13:21:02;4.40;;;1.38;;
39958;SDS011;25639;53.634;9.880;2022-08-21T13:23:33;4.00;;;1.30;;
39958;SDS011;25639;53.634;9.880;2022-08-21T13:25:58;3.35;;;1.30;;
39958;SDS011;25639;53.634;9.880;2022-08-21T13:28:31;2.42;;;1.02;;
39958;SDS011;25639;53.634;9.880;2022-08-21T13:30:58;10.20;;;1.67;;
39958;SDS011;25639;53.634;9.880;2022-08-21T13:33:26;3.28;;;1.30;;
39958;SDS011;25639;53.634;9.880;2022-08-21T13:38:25;3.20;;;1.20;;
39958;SDS011;25639;53.634;9.880;2022-08-21T13:41:03;3.22;;;1.15;;
39958;SDS011;25639;53.634;9.880;2022-08-21T13:43:35;3.83;;;1.20;;
39958;SDS011;25639;53.634;9.880;2022-08-21T13:46:02;3.53;;;1.27;;
39958;SDS011;25639;53.634;9.880;2022-08-21T13:48:34;4.22;;;1.30;;
39958;SDS011;25639;53.634;9.880;2022-08-21T13:51:01;4.68;;;1.52;;
39958;SDS011;25639;53.634;9.880;2022-08-21T13:56:20;1.58;;;0.95;;
39958;SDS011;25639;53.634;9.880;2022-08-21T13:58:57;3.08;;;1.20;;
39958;SDS011;25639;53.634;9.880;2022-08-21T14:01:28;3.53;;;1.40;;
39958;SDS011;25639;53.634;9.880;2022-08-21T14:04:00;2.63;;;1.38;;
39958;SDS011;25639;53.634;9.880;2022-08-21T14:06:33;2.13;;;1.23;;
39958;SDS011;25639;53.634;9.880;2022-08-21T14:09:03;4.60;;;1.30;;
39958;SDS011;25639;53.634;9.880;2022-08-21T14:14:01;3.92;;;1.58;;
39958;SDS011;25639;53.634;9.880;2022-08-21T14:16:44;5.00;;;2.00;;
39958;SDS011;25639;53.634;9.880;2022-08-21T14:19:21;5.07;;;1.60;;
39958;SDS011;25639;53.634;9.880;2022-08-21T14:26:52;4.00;;;1.10;;
39958;SDS011;25639;53.634;9.880;2022-08-21T14:29:24;4.22;;;1.33;;
39958;SDS011;25639;53.634;9.880;2022-08-21T14:31:54;3.88;;;0.98;;
39958;SDS011;25639;53.634;9.880;2022-08-21T14:34:22;4.72;;;1.38;;
39958;SDS011;25639;53.634;9.880;2022-08-21T14:36:49;2.50;;;1.15;;
39958;SDS011;25639;53.634;9.880;2022-08-21T14:39:15;3.00;;;1.30;;
39958;SDS011;25639;53.634;9.880;2022-08-21T14:41:41;3.30;;;1.30;;
39958;SDS011;25639;53.634;9.880;2022-08-21T14:44:07;3.63;;;1.30;;
39958;SDS011;25639;53.634;9.880;2022-08-21T14:46:34;2.35;;;1.25;;
39958;SDS011;25639;53.634;9.880;2022-08-21T14:49:00;2.60;;;1.05;;
39958;SDS011;25639;53.634;9.880;2022-08-21T14:51:27;5.60;;;1.40;;
39958;SDS011;25639;53.634;9.880;2022-08-21T14:53:52;3.63;;;1.20;;
39958;SDS011;25639;53.634;9.880;2022-08-21T14:56:18;2.53;;;1.00;;
39958;SDS011;25639;53.634;9.880;2022-08-21T14:58:44;5.18;;;1.30;;
39958;SDS011;25639;53.634;9.880;2022-08-21T15:01:13;2.47;;;1.35;;
39958;SDS011;25639;53.634;9.880;2022-08-21T15:03:40;2.47;;;1.10;;
39958;SDS011;25639;53.634;9.880;2022-08-21T15:06:06;5.45;;;1.35;;
39958;SDS011;25639;53.634;9.880;2022-08-21T15:08:33;4.97;;;1.15;;
39958;SDS011;25639;53.634;9.880;2022-08-21T15:10:59;3.20;;;1.10;;
39958;SDS011;25639;53.634;9.880;2022-08-21T15:13:27;11.80;;;1.70;;
39958;SDS011;25639;53.634;9.880;2022-08-21T15:15:54;3.08;;;1.08;;
39958;SDS011;25639;53.634;9.880;2022-08-21T15:18:21;3.53;;;1.33;;
39958;SDS011;25639;53.634;9.880;2022-08-21T15:20:50;5.45;;;1.40;;
39958;SDS011;25639;53.634;9.880;2022-08-21T15:23:16;2.72;;;1.15;;
39958;SDS011;25639;53.634;9.880;2022-08-21T15:25:43;2.90;;;1.30;;
39958;SDS011;25639;53.634;9.880;2022-08-21T15:28:10;4.38;;;1.00;;
39958;SDS011;25639;53.634;9.880;2022-08-21T15:30:37;2.20;;;1.00;;
39958;SDS011;25639;53.634;9.880;2022-08-21T15:33:05;3.85;;;1.35;;
39958;SDS011;25639;53.634;9.880;2022-08-21T15:35:31;3.13;;;1.05;;
39958;SDS011;25639;53.634;9.880;2022-08-21T15:37:56;4.20;;;1.13;;
39958;SDS011;25639;53.634;9.880;2022-08-21T15:40:22;4.25;;;1.25;;
39958;SDS011;25639;53.634;9.880;2022-08-21T15:42:49;2.38;;;1.00;;
39958;SDS011;25639;53.634;9.880;2022-08-21T15:45:17;3.20;;;1.00;;
39958;SDS011;25639;53.634;9.880;2022-08-21T15:47:44;3.35;;;1.00;;
39958;SDS011;25639;53.634;9.880;2022-08-21T15:50:11;2.53;;;0.98;;
39958;SDS011;25639;53.634;9.880;2022-08-21T15:52:37;3.33;;;1.15;;
39958;SDS011;25639;53.634;9.880;2022-08-21T15:55:03;41.50;;;2.75;;
39958;SDS011;25639;53.634;9.880;2022-08-21T15:57:30;14.27;;;1.77;;
39958;SDS011;25639;53.634;9.880;2022-08-21T15:59:57;4.22;;;1.10;;
39958;SDS011;25639;53.634;9.880;2022-08-21T16:02:30;3.80;;;1.20;;
39958;SDS011;25639;53.634;9.880;2022-08-21T16:04:56;3.97;;;1.08;;
39958;SDS011;25639;53.634;9.880;2022-08-21T16:07:22;3.90;;;1.13;;
39958;SDS011;25639;53.634;9.880;2022-08-21T16:09:47;2.03;;;0.90;;
39958;SDS011;25639;53.634;9.880;2022-08-21T16:12:17;4.55;;;1.10;;
39958;SDS011;25639;53.634;9.880;2022-08-21T16:14:52;3.85;;;1.10;;
39958;SDS011;25639;53.634;9.880;2022-08-21T16:17:18;2.50;;;1.10;;
39958;SDS011;25639;53.634;9.880;2022-08-21T16:19:45;4.78;;;1.40;;
39958;SDS011;25639;53.634;9.880;2022-08-21T16:22:11;6.32;;;1.63;;